sensor_id;sensor_type;location;lat;lon;timestamp;temperature;humidity
17284;DHT22;8760;52.248;20.952;2023-07-22T00:02:15;19.30;1.00
17284;DHT22;8760;52.248;20.952;2023-07-22T00:04:42;19.30;99.90
17284;DHT22;8760;52.248;20.952;2023-07-22T00:07:09;19.30;85.10
17284;DHT22;8760;52.248;20.952;2023-07-22T00:09:36;19.20;99.90
17284;DHT22;8760;52.248;20.952;2023-07-22T00:12:04;19.10;42.70
17284;DHT22;8760;52.248;20.952;2023-07-22T00:14:33;19.10;1.00
17284;DHT22;8760;52.248;20.952;2023-07-22T00:17:00;19.00;99.90
17284;DHT22;8760;52.248;20.952;2023-07-22T00:19:27;19.00;1.00
17284;DHT22;8760;52.248;20.952;2023-07-22T00:21:54;18.90;99.90
17284;DHT22;8760;52.248;20.952;2023-07-22T00:24:21;18.90;99.90
17284;DHT22;8760;52.248;20.952;2023-07-22T00:26:48;18.80;1.00
17284;DHT22;8760;52.248;20.952;2023-07-22T00:29:16;18.80;39.00
17284;DHT22;8760;52.248;20.952;2023-07-22T00:31:44;18.70;86.90
17284;DHT22;8760;52.248;20.952;2023-07-22T00:34:11;18.70;1.00
17284;DHT22;8760;52.248;20.952;2023-07-22T00:36:38;18.70;99.90
17284;DHT22;8760;52.248;20.952;2023-07-22T00:39:05;18.70;99.90
17284;DHT22;8760;52.248;20.952;2023-07-22T00:41:32;18.60;1.00
17284;DHT22;8760;52.248;20.952;2023-07-22T00:43:58;18.60;99.90
17284;DHT22;8760;52.248;20.952;2023-07-22T00:46:25;18.70;99.90
17284;DHT22;8760;52.248;20.952;2023-07-22T00:48:53;18.60;1.00
17284;DHT22;8760;52.248;20.952;2023-07-22T00:51:20;18.60;1.00
17284;DHT22;8760;52.248;20.952;2023-07-22T00:53:48;18.50;1.00
17284;DHT22;8760;52.248;20.952;2023-07-22T00:56:15;18.50;1.00
17284;DHT22;8760;52.248;20.952;2023-07-22T00:58:42;18.50;99.90
17284;DHT22;8760;52.248;20.952;2023-07-22T01:01:09;18.50;99.90
17284;DHT22;8760;52.248;20.952;2023-07-22T01:03:35;18.50;99.90
17284;DHT22;8760;52.248;20.952;2023-07-22T01:06:04;18.50;99.90
17284;DHT22;8760;52.248;20.952;2023-07-22T01:08:32;18.50;1.00
17284;DHT22;8760;52.248;20.952;2023-07-22T01:10:58;18.40;1.00
17284;DHT22;8760;52.248;20.952;2023-07-22T01:13:25;18.50;99.90
17284;DHT22;8760;52.248;20.952;2023-07-22T01:15:52;18.50;99.90
17284;DHT22;8760;52.248;20.952;2023-07-22T01:18:19;18.40;99.90
17284;DHT22;8760;52.248;20.952;2023-07-22T01:20:47;18.50;1.00
17284;DHT22;8760;52.248;20.952;2023-07-22T01:23:15;18.40;99.90
17284;DHT22;8760;52.248;20.952;2023-07-22T01:25:43;18.40;1.00
17284;DHT22;8760;52.248;20.952;2023-07-22T01:28:10;18.30;1.00
17284;DHT22;8760;52.248;20.952;2023-07-22T01:30:37;18.30;1.00
17284;DHT22;8760;52.248;20.952;2023-07-22T01:33:05;18.40;1.00
17284;DHT22;8760;52.248;20.952;2023-07-22T01:35:32;18.40;1.00
17284;DHT22;8760;52.248;20.952;2023-07-22T01:37:59;18.40;1.00
17284;DHT22;8760;52.248;20.952;2023-07-22T01:40:27;18.40;1.00
17284;DHT22;8760;52.248;20.952;2023-07-22T01:42:54;18.40;1.00
17284;DHT22;8760;52.248;20.952;2023-07-22T01:45:21;18.40;1.00
17284;DHT22;8760;52.248;20.952;2023-07-22T01:47:47;18.40;1.00
17284;DHT22;8760;52.248;20.952;2023-07-22T01:50:14;18.30;1.00
17284;DHT22;8760;52.248;20.952;2023-07-22T01:52:42;18.30;1.00
17284;DHT22;8760;52.248;20.952;2023-07-22T01:55:09;18.30;1.00
17284;DHT22;8760;52.248;20.952;2023-07-22T01:57:38;18.30;1.00
17284;DHT22;8760;52.248;20.952;2023-07-22T02:00:06;18.30;1.00
17284;DHT22;8760;52.248;20.952;2023-07-22T02:02:36;18.30;1.00
17284;DHT22;8760;52.248;20.952;2023-07-22T02:05:03;18.30;1.00
17284;DHT22;8760;52.248;20.952;2023-07-22T02:07:31;18.30;1.00
17284;DHT22;8760;52.248;20.952;2023-07-22T02:09:58;18.30;1.00
17284;DHT22;8760;52.248;20.952;2023-07-22T02:12:25;18.30;1.00
17284;DHT22;8760;52.248;20.952;2023-07-22T02:14:53;18.20;1.00
17284;DHT22;8760;52.248;20.952;2023-07-22T02:17:20;18.20;1.00
17284;DHT22;8760;52.248;20.952;2023-07-22T02:19:47;18.10;1.00
17284;DHT22;8760;52.248;20.952;2023-07-22T02:22:14;18.10;1.00
17284;DHT22;8760;52.248;20.952;2023-07-22T02:24:41;18.10;1.00
17284;DHT22;8760;52.248;20.952;2023-07-22T02:27:08;18.10;1.00
17284;DHT22;8760;52.248;20.952;2023-07-22T02:29:35;18.10;1.00
17284;DHT22;8760;52.248;20.952;2023-07-22T02:32:04;18.00;1.00
17284;DHT22;8760;52.248;20.952;2023-07-22T02:34:31;18.10;1.00
17284;DHT22;8760;52.248;20.952;2023-07-22T02:36:58;18.00;1.00
17284;DHT22;8760;52.248;20.952;2023-07-22T02:39:25;18.00;1.00
17284;DHT22;8760;52.248;20.952;2023-07-22T02:41:52;18.00;1.00
17284;DHT22;8760;52.248;20.952;2023-07-22T02:44:18;18.00;1.00
17284;DHT22;8760;52.248;20.952;2023-07-22T02:46:45;17.90;1.00
17284;DHT22;8760;52.248;20.952;2023-07-22T02:49:14;18.00;1.00
17284;DHT22;8760;52.248;20.952;2023-07-22T02:51:41;17.90;1.00
17284;DHT22;8760;52.248;20.952;2023-07-22T02:54:07;17.80;13.80
17284;DHT22;8760;52.248;20.952;2023-07-22T02:56:34;17.90;6.00
17284;DHT22;8760;52.248;20.952;2023-07-22T02:59:01;17.80;23.00
17284;DHT22;8760;52.248;20.952;2023-07-22T03:01:28;17.80;99.90
17284;DHT22;8760;52.248;20.952;2023-07-22T03:03:56;17.80;99.90
17284;DHT22;8760;52.248;20.952;2023-07-22T03:06:24;17.80;99.90
17284;DHT22;8760;52.248;20.952;2023-07-22T03:08:51;17.80;99.90
17284;DHT22;8760;52.248;20.952;2023-07-22T03:11:19;17.80;99.90
17284;DHT22;8760;52.248;20.952;2023-07-22T03:13:46;17.80;99.90
17284;DHT22;8760;52.248;20.952;2023-07-22T03:16:13;17.70;99.90
17284;DHT22;8760;52.248;20.952;2023-07-22T03:18:40;17.70;99.90
17284;DHT22;8760;52.248;20.952;2023-07-22T03:21:10;17.60;99.90
17284;DHT22;8760;52.248;20.952;2023-07-22T03:23:38;17.60;99.90
17284;DHT22;8760;52.248;20.952;2023-07-22T03:26:05;17.60;99.90
17284;DHT22;8760;52.248;20.952;2023-07-22T03:28:32;17.60;99.90
17284;DHT22;8760;52.248;20.952;2023-07-22T03:30:59;17.60;99.90
17284;DHT22;8760;52.248;20.952;2023-07-22T03:33:26;17.60;99.90
17284;DHT22;8760;52.248;20.952;2023-07-22T03:35:53;17.60;99.90
17284;DHT22;8760;52.248;20.952;2023-07-22T03:38:19;17.60;99.90
17284;DHT22;8760;52.248;20.952;2023-07-22T03:40:48;17.60;99.90
17284;DHT22;8760;52.248;20.952;2023-07-22T03:43:15;17.70;99.90
17284;DHT22;8760;52.248;20.952;2023-07-22T03:45:41;17.80;99.90
17284;DHT22;8760;52.248;20.952;2023-07-22T03:48:08;17.80;99.90
17284;DHT22;8760;52.248;20.952;2023-07-22T03:50:35;17.80;99.90
17284;DHT22;8760;52.248;20.952;2023-07-22T03:53:02;17.90;99.90
17284;DHT22;8760;52.248;20.952;2023-07-22T03:55:29;18.00;99.90
17284;DHT22;8760;52.248;20.952;2023-07-22T03:57:57;18.00;99.90
17284;DHT22;8760;52.248;20.952;2023-07-22T04:00:24;18.10;99.90
17284;DHT22;8760;52.248;20.952;2023-07-22T04:02:51;18.20;99.90
17284;DHT22;8760;52.248;20.952;2023-07-22T04:05:18;18.20;99.90
17284;DHT22;8760;52.248;20.952;2023-07-22T04:07:45;18.20;99.90
17284;DHT22;8760;52.248;20.952;2023-07-22T04:10:12;18.30;99.90
17284;DHT22;8760;52.248;20.952;2023-07-22T04:12:39;18.20;99.90
17284;DHT22;8760;52.248;20.952;2023-07-22T04:15:08;18.30;99.90
17284;DHT22;8760;52.248;20.952;2023-07-22T04:17:35;18.30;99.90
17284;DHT22;8760;52.248;20.952;2023-07-22T04:20:02;18.30;99.90
17284;DHT22;8760;52.248;20.952;2023-07-22T04:22:29;18.30;99.90
17284;DHT22;8760;52.248;20.952;2023-07-22T04:24:56;18.30;99.90
17284;DHT22;8760;52.248;20.952;2023-07-22T04:27:23;18.40;99.90
17284;DHT22;8760;52.248;20.952;2023-07-22T04:29:50;18.40;99.90
17284;DHT22;8760;52.248;20.952;2023-07-22T04:32:18;18.40;99.90
17284;DHT22;8760;52.248;20.952;2023-07-22T04:34:46;18.40;99.90
17284;DHT22;8760;52.248;20.952;2023-07-22T04:37:13;18.40;99.90
17284;DHT22;8760;52.248;20.952;2023-07-22T04:39:39;18.40;99.90
17284;DHT22;8760;52.248;20.952;2023-07-22T04:42:07;18.40;99.90
17284;DHT22;8760;52.248;20.952;2023-07-22T04:44:33;18.30;99.90
17284;DHT22;8760;52.248;20.952;2023-07-22T04:47:00;18.30;99.90
17284;DHT22;8760;52.248;20.952;2023-07-22T04:49:29;18.30;99.90
17284;DHT22;8760;52.248;20.952;2023-07-22T04:51:56;18.30;99.90
17284;DHT22;8760;52.248;20.952;2023-07-22T04:54:22;18.20;99.90
17284;DHT22;8760;52.248;20.952;2023-07-22T04:56:49;18.20;99.90
17284;DHT22;8760;52.248;20.952;2023-07-22T04:59:16;18.10;99.90
17284;DHT22;8760;52.248;20.952;2023-07-22T05:01:44;18.10;99.90
17284;DHT22;8760;52.248;20.952;2023-07-22T05:04:11;18.00;99.90
17284;DHT22;8760;52.248;20.952;2023-07-22T05:06:39;18.00;99.90
17284;DHT22;8760;52.248;20.952;2023-07-22T05:09:06;17.90;99.90
17284;DHT22;8760;52.248;20.952;2023-07-22T05:11:33;17.90;99.90
17284;DHT22;8760;52.248;20.952;2023-07-22T05:13:59;17.80;99.90
17284;DHT22;8760;52.248;20.952;2023-07-22T05:16:26;17.80;99.90
17284;DHT22;8760;52.248;20.952;2023-07-22T05:18:53;17.80;99.90
17284;DHT22;8760;52.248;20.952;2023-07-22T05:21:20;17.80;99.90
17284;DHT22;8760;52.248;20.952;2023-07-22T05:23:48;17.80;99.90
17284;DHT22;8760;52.248;20.952;2023-07-22T05:26:15;17.80;99.90
17284;DHT22;8760;52.248;20.952;2023-07-22T05:28:42;17.70;99.90
17284;DHT22;8760;52.248;20.952;2023-07-22T05:31:09;17.70;99.90
17284;DHT22;8760;52.248;20.952;2023-07-22T05:33:36;17.70;99.90
17284;DHT22;8760;52.248;20.952;2023-07-22T05:36:03;17.80;99.90
17284;DHT22;8760;52.248;20.952;2023-07-22T05:38:30;17.70;99.90
17284;DHT22;8760;52.248;20.952;2023-07-22T05:40:59;17.80;99.90
17284;DHT22;8760;52.248;20.952;2023-07-22T05:43:26;17.80;99.90
17284;DHT22;8760;52.248;20.952;2023-07-22T05:45:52;17.80;99.90
17284;DHT22;8760;52.248;20.952;2023-07-22T05:48:19;17.80;99.90
17284;DHT22;8760;52.248;20.952;2023-07-22T05:50:47;17.80;99.90
17284;DHT22;8760;52.248;20.952;2023-07-22T05:53:14;17.80;99.90
17284;DHT22;8760;52.248;20.952;2023-07-22T05:55:41;17.80;99.90
17284;DHT22;8760;52.248;20.952;2023-07-22T05:58:15;17.80;99.90
17284;DHT22;8760;52.248;20.952;2023-07-22T06:00:42;17.80;99.90
17284;DHT22;8760;52.248;20.952;2023-07-22T06:03:09;17.90;99.90
17284;DHT22;8760;52.248;20.952;2023-07-22T06:05:36;18.00;99.90
17284;DHT22;8760;52.248;20.952;2023-07-22T06:08:04;18.10;99.90
17284;DHT22;8760;52.248;20.952;2023-07-22T06:10:31;18.10;99.90
17284;DHT22;8760;52.248;20.952;2023-07-22T06:12:58;18.10;99.90
17284;DHT22;8760;52.248;20.952;2023-07-22T06:15:26;18.10;99.90
17284;DHT22;8760;52.248;20.952;2023-07-22T06:17:53;18.10;99.90
17284;DHT22;8760;52.248;20.952;2023-07-22T06:20:20;18.10;99.90
17284;DHT22;8760;52.248;20.952;2023-07-22T06:22:47;18.20;99.90
17284;DHT22;8760;52.248;20.952;2023-07-22T06:25:14;18.30;99.90
17284;DHT22;8760;52.248;20.952;2023-07-22T06:27:41;18.40;99.90
17284;DHT22;8760;52.248;20.952;2023-07-22T06:30:09;18.50;99.90
17284;DHT22;8760;52.248;20.952;2023-07-22T06:32:38;18.50;99.90
17284;DHT22;8760;52.248;20.952;2023-07-22T06:35:06;18.60;99.90
17284;DHT22;8760;52.248;20.952;2023-07-22T06:37:33;18.70;99.90
17284;DHT22;8760;52.248;20.952;2023-07-22T06:40:00;18.80;99.90
17284;DHT22;8760;52.248;20.952;2023-07-22T06:42:27;19.00;99.90
17284;DHT22;8760;52.248;20.952;2023-07-22T06:44:54;19.10;99.90
17284;DHT22;8760;52.248;20.952;2023-07-22T06:47:21;19.20;99.90
17284;DHT22;8760;52.248;20.952;2023-07-22T06:49:49;19.20;99.90
17284;DHT22;8760;52.248;20.952;2023-07-22T06:52:17;19.40;99.90
17284;DHT22;8760;52.248;20.952;2023-07-22T06:54:44;19.60;99.90
17284;DHT22;8760;52.248;20.952;2023-07-22T06:57:11;19.60;99.90
17284;DHT22;8760;52.248;20.952;2023-07-22T06:59:38;19.60;99.90
17284;DHT22;8760;52.248;20.952;2023-07-22T07:02:05;19.60;99.90
17284;DHT22;8760;52.248;20.952;2023-07-22T07:04:32;19.70;99.90
17284;DHT22;8760;52.248;20.952;2023-07-22T07:07:00;19.80;99.90
17284;DHT22;8760;52.248;20.952;2023-07-22T07:09:28;19.80;99.90
17284;DHT22;8760;52.248;20.952;2023-07-22T07:11:55;19.90;99.90
17284;DHT22;8760;52.248;20.952;2023-07-22T07:14:22;20.00;99.90
17284;DHT22;8760;52.248;20.952;2023-07-22T07:16:50;19.90;99.90
17284;DHT22;8760;52.248;20.952;2023-07-22T07:19:17;19.80;99.90
17284;DHT22;8760;52.248;20.952;2023-07-22T07:21:43;19.80;99.90
17284;DHT22;8760;52.248;20.952;2023-07-22T07:24:12;19.70;99.90
17284;DHT22;8760;52.248;20.952;2023-07-22T07:26:39;19.70;99.90
17284;DHT22;8760;52.248;20.952;2023-07-22T07:29:06;19.80;99.90
17284;DHT22;8760;52.248;20.952;2023-07-22T07:31:33;19.80;99.90
17284;DHT22;8760;52.248;20.952;2023-07-22T07:34:00;19.90;99.90
17284;DHT22;8760;52.248;20.952;2023-07-22T07:36:27;20.00;99.90
17284;DHT22;8760;52.248;20.952;2023-07-22T07:38:54;20.10;99.90
17284;DHT22;8760;52.248;20.952;2023-07-22T07:41:22;20.20;99.90
17284;DHT22;8760;52.248;20.952;2023-07-22T07:43:49;20.60;99.90
17284;DHT22;8760;52.248;20.952;2023-07-22T07:46:22;20.90;99.90
17284;DHT22;8760;52.248;20.952;2023-07-22T07:48:52;21.10;99.90
17284;DHT22;8760;52.248;20.952;2023-07-22T07:51:20;21.30;99.90
17284;DHT22;8760;52.248;20.952;2023-07-22T07:53:47;21.70;99.90
17284;DHT22;8760;52.248;20.952;2023-07-22T07:56:15;21.90;99.90
17284;DHT22;8760;52.248;20.952;2023-07-22T07:58:44;21.80;99.90
17284;DHT22;8760;52.248;20.952;2023-07-22T08:01:12;21.90;99.90
17284;DHT22;8760;52.248;20.952;2023-07-22T08:03:40;22.10;99.90
17284;DHT22;8760;52.248;20.952;2023-07-22T08:06:07;22.30;99.90
17284;DHT22;8760;52.248;20.952;2023-07-22T08:08:35;22.80;99.90
17284;DHT22;8760;52.248;20.952;2023-07-22T08:11:05;23.20;99.90
17284;DHT22;8760;52.248;20.952;2023-07-22T08:13:33;23.30;99.90
17284;DHT22;8760;52.248;20.952;2023-07-22T08:16:02;23.40;99.90
17284;DHT22;8760;52.248;20.952;2023-07-22T08:18:29;23.40;99.90
17284;DHT22;8760;52.248;20.952;2023-07-22T08:20:56;23.80;99.90
17284;DHT22;8760;52.248;20.952;2023-07-22T08:23:24;24.20;99.90
17284;DHT22;8760;52.248;20.952;2023-07-22T08:25:51;24.70;99.90
17284;DHT22;8760;52.248;20.952;2023-07-22T08:28:18;24.70;99.90
17284;DHT22;8760;52.248;20.952;2023-07-22T08:30:44;24.80;99.90
17284;DHT22;8760;52.248;20.952;2023-07-22T08:33:14;25.10;99.90
17284;DHT22;8760;52.248;20.952;2023-07-22T08:35:42;25.10;99.90
17284;DHT22;8760;52.248;20.952;2023-07-22T08:38:09;25.10;99.90
17284;DHT22;8760;52.248;20.952;2023-07-22T08:40:37;25.50;99.90
17284;DHT22;8760;52.248;20.952;2023-07-22T08:43:05;25.50;99.90
17284;DHT22;8760;52.248;20.952;2023-07-22T08:45:34;25.50;99.90
17284;DHT22;8760;52.248;20.952;2023-07-22T08:48:03;25.30;99.90
17284;DHT22;8760;52.248;20.952;2023-07-22T08:50:37;25.60;99.90
17284;DHT22;8760;52.248;20.952;2023-07-22T08:53:08;25.90;99.90
17284;DHT22;8760;52.248;20.952;2023-07-22T08:55:35;26.20;99.90
17284;DHT22;8760;52.248;20.952;2023-07-22T08:58:03;26.70;99.90
17284;DHT22;8760;52.248;20.952;2023-07-22T09:00:30;26.80;99.90
17284;DHT22;8760;52.248;20.952;2023-07-22T09:02:58;26.50;99.90
17284;DHT22;8760;52.248;20.952;2023-07-22T09:05:28;26.50;99.90
17284;DHT22;8760;52.248;20.952;2023-07-22T09:07:58;26.80;99.90
17284;DHT22;8760;52.248;20.952;2023-07-22T09:10:27;27.00;99.90
17284;DHT22;8760;52.248;20.952;2023-07-22T09:12:54;27.20;99.90
17284;DHT22;8760;52.248;20.952;2023-07-22T09:15:22;27.50;99.90
17284;DHT22;8760;52.248;20.952;2023-07-22T09:17:49;27.90;99.90
17284;DHT22;8760;52.248;20.952;2023-07-22T09:20:16;27.60;99.90
17284;DHT22;8760;52.248;20.952;2023-07-22T09:22:44;27.30;99.90
17284;DHT22;8760;52.248;20.952;2023-07-22T09:25:18;27.40;99.90
17284;DHT22;8760;52.248;20.952;2023-07-22T09:27:45;26.60;99.90
17284;DHT22;8760;52.248;20.952;2023-07-22T09:30:23;25.80;99.90
17284;DHT22;8760;52.248;20.952;2023-07-22T09:32:51;25.60;99.90
17284;DHT22;8760;52.248;20.952;2023-07-22T09:35:18;25.60;99.90
17284;DHT22;8760;52.248;20.952;2023-07-22T09:37:46;26.10;99.90
17284;DHT22;8760;52.248;20.952;2023-07-22T09:40:18;26.20;99.90
17284;DHT22;8760;52.248;20.952;2023-07-22T09:42:47;26.00;99.90
17284;DHT22;8760;52.248;20.952;2023-07-22T09:45:14;25.80;99.90
17284;DHT22;8760;52.248;20.952;2023-07-22T09:47:42;25.90;99.90
17284;DHT22;8760;52.248;20.952;2023-07-22T09:50:14;26.60;99.90
17284;DHT22;8760;52.248;20.952;2023-07-22T09:52:45;27.20;99.90
17284;DHT22;8760;52.248;20.952;2023-07-22T09:55:14;26.30;99.90
17284;DHT22;8760;52.248;20.952;2023-07-22T09:57:45;26.00;99.90
17284;DHT22;8760;52.248;20.952;2023-07-22T10:00:13;25.40;99.90
17284;DHT22;8760;52.248;20.952;2023-07-22T10:02:42;25.30;99.90
17284;DHT22;8760;52.248;20.952;2023-07-22T10:05:13;25.60;99.90
17284;DHT22;8760;52.248;20.952;2023-07-22T10:07:46;26.00;99.90
17284;DHT22;8760;52.248;20.952;2023-07-22T10:10:15;26.30;99.90
17284;DHT22;8760;52.248;20.952;2023-07-22T10:12:44;26.40;99.90
17284;DHT22;8760;52.248;20.952;2023-07-22T10:15:13;26.30;99.90
17284;DHT22;8760;52.248;20.952;2023-07-22T10:17:40;26.30;99.90
17284;DHT22;8760;52.248;20.952;2023-07-22T10:20:08;26.70;99.90
17284;DHT22;8760;52.248;20.952;2023-07-22T10:22:41;26.70;99.90
17284;DHT22;8760;52.248;20.952;2023-07-22T10:25:08;27.20;99.90
17284;DHT22;8760;52.248;20.952;2023-07-22T10:27:36;27.30;99.90
17284;DHT22;8760;52.248;20.952;2023-07-22T10:30:10;27.70;99.90
17284;DHT22;8760;52.248;20.952;2023-07-22T10:32:39;28.30;99.90
17284;DHT22;8760;52.248;20.952;2023-07-22T10:35:09;28.20;99.90
17284;DHT22;8760;52.248;20.952;2023-07-22T10:37:39;28.20;99.90
17284;DHT22;8760;52.248;20.952;2023-07-22T10:40:17;27.70;99.90
17284;DHT22;8760;52.248;20.952;2023-07-22T10:42:52;26.80;99.90
17284;DHT22;8760;52.248;20.952;2023-07-22T10:45:27;26.00;99.90
17284;DHT22;8760;52.248;20.952;2023-07-22T10:48:03;25.40;99.90
17284;DHT22;8760;52.248;20.952;2023-07-22T10:50:42;24.90;99.90
17284;DHT22;8760;52.248;20.952;2023-07-22T10:53:10;24.60;99.90
17284;DHT22;8760;52.248;20.952;2023-07-22T10:56:03;24.60;99.90
17284;DHT22;8760;52.248;20.952;2023-07-22T10:58:30;24.60;99.90
17284;DHT22;8760;52.248;20.952;2023-07-22T11:01:21;24.80;99.90
17284;DHT22;8760;52.248;20.952;2023-07-22T11:04:16;25.70;99.90
17284;DHT22;8760;52.248;20.952;2023-07-22T11:06:55;26.40;99.90
17284;DHT22;8760;52.248;20.952;2023-07-22T11:09:43;26.30;99.90
17284;DHT22;8760;52.248;20.952;2023-07-22T11:12:13;26.30;99.90
17284;DHT22;8760;52.248;20.952;2023-07-22T11:14:46;26.00;99.90
17284;DHT22;8760;52.248;20.952;2023-07-22T11:17:15;25.30;99.90
17284;DHT22;8760;52.248;20.952;2023-07-22T11:19:43;25.00;99.90
17284;DHT22;8760;52.248;20.952;2023-07-22T11:22:11;24.90;99.90
17284;DHT22;8760;52.248;20.952;2023-07-22T11:24:39;24.50;99.90
17284;DHT22;8760;52.248;20.952;2023-07-22T11:27:07;24.70;99.90
17284;DHT22;8760;52.248;20.952;2023-07-22T11:29:35;25.30;99.90
17284;DHT22;8760;52.248;20.952;2023-07-22T11:32:02;25.50;99.90
17284;DHT22;8760;52.248;20.952;2023-07-22T11:34:31;25.70;99.90
17284;DHT22;8760;52.248;20.952;2023-07-22T11:36:58;25.30;99.90
17284;DHT22;8760;52.248;20.952;2023-07-22T11:39:26;25.10;99.90
17284;DHT22;8760;52.248;20.952;2023-07-22T11:41:59;24.80;99.90
17284;DHT22;8760;52.248;20.952;2023-07-22T11:44:28;24.60;99.90
17284;DHT22;8760;52.248;20.952;2023-07-22T11:46:57;24.30;99.90
17284;DHT22;8760;52.248;20.952;2023-07-22T11:49:29;24.10;99.90
17284;DHT22;8760;52.248;20.952;2023-07-22T11:51:59;24.00;99.90
17284;DHT22;8760;52.248;20.952;2023-07-22T11:54:26;23.90;99.90
17284;DHT22;8760;52.248;20.952;2023-07-22T11:56:54;23.70;99.90
17284;DHT22;8760;52.248;20.952;2023-07-22T11:59:35;23.60;99.90
17284;DHT22;8760;52.248;20.952;2023-07-22T12:02:03;23.60;99.90
17284;DHT22;8760;52.248;20.952;2023-07-22T12:04:31;23.50;99.90
17284;DHT22;8760;52.248;20.952;2023-07-22T12:07:01;23.60;99.90
17284;DHT22;8760;52.248;20.952;2023-07-22T12:09:30;23.80;99.90
17284;DHT22;8760;52.248;20.952;2023-07-22T12:11:57;23.90;99.90
17284;DHT22;8760;52.248;20.952;2023-07-22T12:14:31;24.00;99.90
17284;DHT22;8760;52.248;20.952;2023-07-22T12:16:59;24.00;99.90
17284;DHT22;8760;52.248;20.952;2023-07-22T12:19:27;24.30;99.90
17284;DHT22;8760;52.248;20.952;2023-07-22T12:21:55;24.50;99.90
17284;DHT22;8760;52.248;20.952;2023-07-22T12:24:24;24.70;99.90
17284;DHT22;8760;52.248;20.952;2023-07-22T12:26:50;24.60;99.90
17284;DHT22;8760;52.248;20.952;2023-07-22T12:29:17;24.50;99.90
17284;DHT22;8760;52.248;20.952;2023-07-22T12:31:44;24.30;99.90
17284;DHT22;8760;52.248;20.952;2023-07-22T12:34:11;24.20;99.90
17284;DHT22;8760;52.248;20.952;2023-07-22T12:36:38;24.30;99.90
17284;DHT22;8760;52.248;20.952;2023-07-22T12:39:05;24.30;99.90
17284;DHT22;8760;52.248;20.952;2023-07-22T12:41:33;24.30;99.90
17284;DHT22;8760;52.248;20.952;2023-07-22T12:44:00;24.60;99.90
17284;DHT22;8760;52.248;20.952;2023-07-22T12:46:27;24.80;99.90
17284;DHT22;8760;52.248;20.952;2023-07-22T12:48:54;25.10;99.90
17284;DHT22;8760;52.248;20.952;2023-07-22T12:51:21;25.20;99.90
17284;DHT22;8760;52.248;20.952;2023-07-22T12:53:48;25.20;99.90
17284;DHT22;8760;52.248;20.952;2023-07-22T12:56:15;25.10;99.90
17284;DHT22;8760;52.248;20.952;2023-07-22T12:58:43;25.00;99.90
17284;DHT22;8760;52.248;20.952;2023-07-22T13:01:10;25.00;99.90
17284;DHT22;8760;52.248;20.952;2023-07-22T13:03:37;25.10;99.90
17284;DHT22;8760;52.248;20.952;2023-07-22T13:06:04;25.20;99.90
17284;DHT22;8760;52.248;20.952;2023-07-22T13:08:31;25.40;99.90
17284;DHT22;8760;52.248;20.952;2023-07-22T13:10:58;25.60;99.90
17284;DHT22;8760;52.248;20.952;2023-07-22T13:13:25;25.60;99.90
17284;DHT22;8760;52.248;20.952;2023-07-22T13:15:53;25.50;99.90
17284;DHT22;8760;52.248;20.952;2023-07-22T13:18:20;25.60;99.90
17284;DHT22;8760;52.248;20.952;2023-07-22T13:20:47;25.70;99.90
17284;DHT22;8760;52.248;20.952;2023-07-22T13:23:13;25.90;99.90
17284;DHT22;8760;52.248;20.952;2023-07-22T13:25:40;26.00;99.90
17284;DHT22;8760;52.248;20.952;2023-07-22T13:28:07;25.90;99.90
17284;DHT22;8760;52.248;20.952;2023-07-22T13:30:34;25.90;99.90
17284;DHT22;8760;52.248;20.952;2023-07-22T13:33:02;25.60;99.90
17284;DHT22;8760;52.248;20.952;2023-07-22T13:35:30;25.70;99.90
17284;DHT22;8760;52.248;20.952;2023-07-22T13:37:57;25.90;99.90
17284;DHT22;8760;52.248;20.952;2023-07-22T13:40:24;26.10;99.90
17284;DHT22;8760;52.248;20.952;2023-07-22T13:42:51;26.40;99.90
17284;DHT22;8760;52.248;20.952;2023-07-22T13:45:18;26.20;99.90
17284;DHT22;8760;52.248;20.952;2023-07-22T13:47:45;26.00;99.90
17284;DHT22;8760;52.248;20.952;2023-07-22T13:50:13;25.90;99.90
17284;DHT22;8760;52.248;20.952;2023-07-22T13:52:40;26.00;99.90
17284;DHT22;8760;52.248;20.952;2023-07-22T13:55:09;26.00;99.90
17284;DHT22;8760;52.248;20.952;2023-07-22T13:57:36;25.80;99.90
17284;DHT22;8760;52.248;20.952;2023-07-22T14:00:03;25.40;99.90
17284;DHT22;8760;52.248;20.952;2023-07-22T14:02:34;25.20;99.90
17284;DHT22;8760;52.248;20.952;2023-07-22T14:05:01;24.80;99.90
17284;DHT22;8760;52.248;20.952;2023-07-22T14:07:30;24.70;99.90
17284;DHT22;8760;52.248;20.952;2023-07-22T14:09:56;24.80;99.90
17284;DHT22;8760;52.248;20.952;2023-07-22T14:12:23;25.00;99.90
17284;DHT22;8760;52.248;20.952;2023-07-22T14:14:50;25.10;99.90
17284;DHT22;8760;52.248;20.952;2023-07-22T14:17:17;25.20;99.90
17284;DHT22;8760;52.248;20.952;2023-07-22T14:19:44;25.40;99.90
17284;DHT22;8760;52.248;20.952;2023-07-22T14:22:11;25.10;99.90
17284;DHT22;8760;52.248;20.952;2023-07-22T14:24:39;25.20;99.90
17284;DHT22;8760;52.248;20.952;2023-07-22T14:27:07;25.30;99.90
17284;DHT22;8760;52.248;20.952;2023-07-22T14:29:33;25.10;99.90
17284;DHT22;8760;52.248;20.952;2023-07-22T14:32:00;25.00;99.90
17284;DHT22;8760;52.248;20.952;2023-07-22T14:34:27;25.00;99.90
17284;DHT22;8760;52.248;20.952;2023-07-22T14:36:54;25.10;99.90
17284;DHT22;8760;52.248;20.952;2023-07-22T14:39:21;25.00;99.90
17284;DHT22;8760;52.248;20.952;2023-07-22T14:41:49;25.10;99.90
17284;DHT22;8760;52.248;20.952;2023-07-22T14:44:16;25.30;99.90
17284;DHT22;8760;52.248;20.952;2023-07-22T14:46:43;25.30;99.90
17284;DHT22;8760;52.248;20.952;2023-07-22T14:49:10;25.40;99.90
17284;DHT22;8760;52.248;20.952;2023-07-22T14:51:37;25.30;99.90
17284;DHT22;8760;52.248;20.952;2023-07-22T14:54:04;25.30;99.90
17284;DHT22;8760;52.248;20.952;2023-07-22T14:56:31;25.30;99.90
17284;DHT22;8760;52.248;20.952;2023-07-22T14:58:59;25.30;99.90
17284;DHT22;8760;52.248;20.952;2023-07-22T15:01:26;25.40;99.90
17284;DHT22;8760;52.248;20.952;2023-07-22T15:03:53;25.40;99.90
17284;DHT22;8760;52.248;20.952;2023-07-22T15:06:21;25.20;99.90
17284;DHT22;8760;52.248;20.952;2023-07-22T15:08:47;25.10;99.90
17284;DHT22;8760;52.248;20.952;2023-07-22T15:11:14;25.00;99.90
17284;DHT22;8760;52.248;20.952;2023-07-22T15:13:41;24.90;99.90
17284;DHT22;8760;52.248;20.952;2023-07-22T15:16:09;24.90;99.90
17284;DHT22;8760;52.248;20.952;2023-07-22T15:18:36;24.90;99.90
17284;DHT22;8760;52.248;20.952;2023-07-22T15:21:03;25.00;99.90
17284;DHT22;8760;52.248;20.952;2023-07-22T15:23:30;24.90;99.90
17284;DHT22;8760;52.248;20.952;2023-07-22T15:25:57;24.90;99.90
17284;DHT22;8760;52.248;20.952;2023-07-22T15:28:25;24.70;99.90
17284;DHT22;8760;52.248;20.952;2023-07-22T15:30:53;24.70;99.90
17284;DHT22;8760;52.248;20.952;2023-07-22T15:33:21;24.50;99.90
17284;DHT22;8760;52.248;20.952;2023-07-22T15:35:48;24.60;99.90
17284;DHT22;8760;52.248;20.952;2023-07-22T15:38:15;24.60;99.90